Time;durP1;ratioP1;P1;durP2;ratioP2;P2;SDS_P1;SDS_P2;PMS_P1;PMS_P2;Temp;Humidity;BMP_temperature;BMP_pressure;BME280_temperature;BME280_humidity;BME280_pressure;Samples;Min_cycle;Max_cycle;Signal;HPM_P1;HPM_P2
2023/10/18 00:01:34;;;;;;;21.92;8.27;;;;;;;2.69;100.00;101192.13;6121164;28;20043;-66
2023/10/18 00:04:29;;;;;;;18.95;6.82;;;;;;;2.66;100.00;101187.91;6129969;28;20032;-66
2023/10/18 00:07:26;;;;;;;22.27;7.88;;;;;;;2.73;100.00;101196.25;6122715;28;20024;-66
2023/10/18 00:10:21;;;;;;;19.92;7.82;;;;;;;2.64;100.00;101183.66;6120822;28;20029;-67
2023/10/18 00:13:16;;;;;;;18.17;7.73;;;;;;;2.68;100.00;101193.06;6121120;28;20031;-67
2023/10/18 00:16:12;;;;;;;23.03;8.00;;;;;;;2.67;100.00;101200.06;6121267;28;20313;-66
2023/10/18 00:19:08;;;;;;;21.98;8.38;;;;;;;2.54;100.00;101190.34;6120706;28;20104;-66
2023/10/18 00:22:06;;;;;;;18.98;7.30;;;;;;;2.57;100.00;101183.19;6113880;28;20039;-67
2023/10/18 00:25:03;;;;;;;18.60;6.72;;;;;;;2.66;100.00;101197.53;6120812;28;20039;-66
2023/10/18 00:27:58;;;;;;;22.15;8.77;;;;;;;2.65;100.00;101190.59;6120186;28;20448;-66
2023/10/18 00:30:53;;;;;;;20.93;7.67;;;;;;;2.63;100.00;101192.47;6107643;28;20077;-66
2023/10/18 00:33:49;;;;;;;17.83;6.95;;;;;;;2.56;100.00;101186.72;6121138;28;20052;-66
2023/10/18 00:36:45;;;;;;;17.05;7.82;;;;;;;2.47;100.00;101189.84;6120749;28;20036;-67
2023/10/18 00:39:41;;;;;;;26.00;8.68;;;;;;;2.46;100.00;101200.38;6120390;28;20032;-67
2023/10/18 00:42:36;;;;;;;26.63;8.20;;;;;;;2.46;100.00;101200.38;6123274;28;20044;-67
2023/10/18 00:45:32;;;;;;;20.93;8.57;;;;;;;2.34;100.00;101196.63;6120433;28;20094;-66
2023/10/18 00:48:28;;;;;;;23.75;8.35;;;;;;;2.46;100.00;101210.84;6108696;28;20100;-67
2023/10/18 00:51:24;;;;;;;19.27;8.20;;;;;;;2.36;100.00;101195.63;6120465;28;20472;-66
2023/10/18 00:54:19;;;;;;;21.48;7.82;;;;;;;2.42;100.00;101189.22;6120229;28;20036;-66
2023/10/18 00:57:20;;;;;;;21.05;7.53;;;;;;;2.23;100.00;101189.38;6107483;28;20074;-66
2023/10/18 01:00:19;;;;;;;22.65;8.05;;;;;;;2.24;100.00;101185.84;6120051;28;20033;-67
2023/10/18 01:03:38;;;;;;;25.67;7.60;;;;;;;2.26;100.00;101189.22;6118091;28;20033;-67
2023/10/18 01:06:31;;;;;;;22.13;8.07;;;;;;;2.22;100.00;101174.63;6119978;28;20047;-67
2023/10/18 01:09:26;;;;;;;20.55;7.45;;;;;;;2.23;100.00;101178.91;6120594;28;20027;-66
2023/10/18 01:12:23;;;;;;;23.67;9.07;;;;;;;2.22;100.00;101187.69;6120053;28;20028;-66
2023/10/18 01:15:20;;;;;;;21.75;7.88;;;;;;;2.22;100.00;101182.47;6119927;28;20031;-67
2023/10/18 01:18:18;;;;;;;20.58;8.35;;;;;;;2.13;100.00;101169.88;6106021;28;20017;-67
2023/10/18 01:21:19;;;;;;;19.65;7.25;;;;;;;2.17;100.00;101174.03;6103607;28;20040;-66
2023/10/18 01:24:14;;;;;;;22.02;7.70;;;;;;;2.04;100.00;101167.72;6120337;28;20029;-66
2023/10/18 01:27:09;;;;;;;21.70;7.83;;;;;;;2.01;100.00;101165.25;6120825;28;20514;-67
2023/10/18 01:30:06;;;;;;;19.23;6.77;;;;;;;2.03;100.00;101165.19;6124148;28;20031;-65
2023/10/18 01:33:04;;;;;;;21.90;6.97;;;;;;;2.03;100.00;101160.81;6124566;28;20032;-66
2023/10/18 01:36:00;;;;;;;22.67;7.65;;;;;;;2.01;100.00;101161.84;6126793;28;20037;-66
2023/10/18 01:38:56;;;;;;;17.63;6.20;;;;;;;1.92;100.00;101151.84;6124487;28;20036;-66
2023/10/18 01:41:53;;;;;;;20.85;6.75;;;;;;;1.94;100.00;101150.84;6124101;28;20059;-67
2023/10/18 01:44:49;;;;;;;21.58;7.78;;;;;;;2.13;100.00;101167.25;6124446;28;20039;-66
2023/10/18 01:47:45;;;;;;;18.02;7.20;;;;;;;1.99;100.00;101148.81;6124370;28;20032;-67
2023/10/18 01:50:40;;;;;;;18.80;7.00;;;;;;;1.84;100.00;101139.19;6127585;28;20475;-65
2023/10/18 01:53:38;;;;;;;15.33;5.90;;;;;;;1.86;100.00;101141.69;6131526;28;20029;-66
2023/10/18 01:56:34;;;;;;;21.50;7.32;;;;;;;1.96;100.00;101143.75;6123899;28;20043;-65
2023/10/18 01:59:30;;;;;;;18.40;6.47;;;;;;;2.42;100.00;101141.28;6124066;28;20104;-66
2023/10/18 02:02:25;;;;;;;18.67;7.70;;;;;;;2.79;100.00;101139.19;6123636;28;20025;-66
2023/10/18 02:05:21;;;;;;;20.70;8.05;;;;;;;2.94;100.00;101126.97;6124093;28;20020;-66
2023/10/18 02:08:17;;;;;;;21.27;6.93;;;;;;;2.76;100.00;101143.72;6123940;28;20039;-65
2023/10/18 02:11:12;;;;;;;17.00;7.03;;;;;;;2.50;100.00;101150.41;6123434;28;20510;-66
2023/10/18 02:14:08;;;;;;;17.13;6.10;;;;;;;2.05;100.00;101139.81;6110944;28;20036;-65
2023/10/18 02:17:09;;;;;;;14.50;6.65;;;;;;;1.84;100.00;101133.94;6123263;28;20036;-67
2023/10/18 02:20:27;;;;;;;21.55;7.28;;;;;;;1.60;100.00;101099.47;6123609;28;20051;-66
2023/10/18 02:23:23;;;;;;;19.20;7.60;;;;;;;1.69;100.00;101132.13;6120181;28;20074;-66
2023/10/18 02:26:30;;;;;;;15.27;7.20;;;;;;;1.65;100.00;101122.75;6125333;28;20063;-65
2023/10/18 02:29:27;;;;;;;20.75;7.75;;;;;;;1.72;100.00;101126.72;6123293;28;20495;-66
2023/10/18 02:32:32;;;;;;;19.17;7.97;;;;;;;1.64;100.00;101115.84;6130604;28;20413;-66
2023/10/18 02:35:27;;;;;;;19.92;7.25;;;;;;;1.87;100.00;101123.34;6123388;28;20476;-67
2023/10/18 02:38:24;;;;;;;20.92;6.95;;;;;;;1.74;100.00;101124.88;6122866;28;20036;-65
2023/10/18 02:41:21;;;;;;;16.67;6.20;;;;;;;1.65;100.00;101117.53;6122850;28;20537;-66
2023/10/18 02:44:22;;;;;;;21.67;7.57;;;;;;;1.75;100.00;101121.34;6121373;28;20487;-66
2023/10/18 02:47:22;;;;;;;19.08;7.03;;;;;;;1.70;100.00;101102.44;6122851;28;20024;-65
2023/10/18 02:50:18;;;;;;;18.15;7.32;;;;;;;1.73;100.00;101105.75;6126571;28;20027;-65
2023/10/18 02:53:17;;;;;;;18.35;7.30;;;;;;;1.70;100.00;101094.63;6132665;28;20111;-66
2023/10/18 02:56:32;;;;;;;20.08;8.15;;;;;;;1.76;100.00;101100.38;6127445;28;20078;-67
2023/10/18 02:59:29;;;;;;;23.60;7.57;;;;;;;1.69;100.00;101085.06;6122404;28;20032;-66
2023/10/18 03:02:26;;;;;;;21.52;7.53;;;;;;;1.75;100.00;101103.06;6122408;28;20021;-66
2023/10/18 03:05:24;;;;;;;20.85;8.18;;;;;;;1.75;100.00;101089.97;6122335;28;20036;-66
2023/10/18 03:08:20;;;;;;;25.13;9.43;;;;;;;1.69;100.00;101087.69;6122312;28;20606;-67
2023/10/18 03:11:20;;;;;;;27.80;9.80;;;;;;;1.71;100.00;101088.47;6121984;28;20024;-67
2023/10/18 03:14:15;;;;;;;25.73;9.82;;;;;;;1.73;100.00;101090.06;6122604;28;20038;-67
2023/10/18 03:17:36;;;;;;;26.10;9.77;;;;;;;1.66;100.00;101095.69;6122013;28;20037;-65
2023/10/18 03:20:28;;;;;;;27.88;9.45;;;;;;;1.55;100.00;101080.56;6122290;28;20282;-66
2023/10/18 03:23:26;;;;;;;25.25;9.20;;;;;;;1.60;100.00;101090.81;6122069;28;20029;-66
2023/10/18 03:26:59;;;;;;;24.83;9.45;;;;;;;1.48;100.00;101067.91;6118124;28;20036;-67
2023/10/18 03:29:43;;;;;;;22.50;7.80;;;;;;;1.55;100.00;101079.75;6123394;28;20064;-66
2023/10/18 03:32:38;;;;;;;19.35;7.53;;;;;;;1.58;100.00;101069.97;6124434;28;20128;-66
2023/10/18 03:35:39;;;;;;;20.97;7.30;;;;;;;1.54;100.00;101054.53;6121157;28;20082;-67
2023/10/18 03:38:41;;;;;;;16.52;6.68;;;;;;;1.64;100.00;101074.03;6121172;28;20479;-67
2023/10/18 03:41:40;;;;;;;19.52;8.23;;;;;;;1.70;100.00;101069.31;6121603;28;20036;-66
2023/10/18 03:44:36;;;;;;;21.08;7.30;;;;;;;1.72;100.00;101061.38;6120433;28;20028;-66
2023/10/18 03:47:36;;;;;;;21.27;8.82;;;;;;;1.64;100.00;101058.34;6121496;28;20078;-66
2023/10/18 03:50:38;;;;;;;21.85;7.68;;;;;;;1.58;100.00;101061.28;6120984;28;20032;-67
2023/10/18 03:53:34;;;;;;;25.00;7.53;;;;;;;1.63;100.00;101067.13;6120617;28;20064;-66
2023/10/18 03:56:32;;;;;;;16.23;6.87;;;;;;;1.34;100.00;101039.03;6121715;28;20361;-65
2023/10/18 03:59:37;;;;;;;20.70;6.68;;;;;;;1.50;100.00;101066.91;6126565;28;20274;-67
2023/10/18 04:02:34;;;;;;;17.73;7.18;;;;;;;1.48;100.00;101067.91;6127711;28;20028;-66
2023/10/18 04:05:44;;;;;;;16.17;7.10;;;;;;;1.44;100.00;101066.41;6122899;28;20107;-66
2023/10/18 04:08:40;;;;;;;20.40;6.60;;;;;;;1.45;100.00;101055.00;6119788;28;20529;-67
2023/10/18 04:11:37;;;;;;;15.52;5.82;;;;;;;1.43;100.00;101046.41;6126721;28;20028;-65
2023/10/18 04:14:33;;;;;;;17.63;6.95;;;;;;;1.48;100.00;101057.47;6121018;28;20472;-66
2023/10/18 04:20:34;;;;;;;18.77;7.50;;;;;;;1.52;100.00;101043.31;6123812;28;20036;-67
2023/10/18 04:23:29;;;;;;;17.80;6.85;;;;;;;1.40;100.00;101033.50;6122002;28;20024;-66
2023/10/18 04:26:28;;;;;;;17.90;7.23;;;;;;;1.33;100.00;101019.09;6121128;28;20036;-67
2023/10/18 04:29:26;;;;;;;18.52;7.60;;;;;;;1.40;100.00;101021.28;6125773;28;20044;-66
2023/10/18 04:32:23;;;;;;;19.85;6.97;;;;;;;1.41;100.00;101011.69;6123806;28;20059;-67
2023/10/18 04:35:25;;;;;;;14.65;6.20;;;;;;;1.34;100.00;101003.31;6120905;28;20056;-67
2023/10/18 04:38:22;;;;;;;18.23;7.18;;;;;;;1.21;100.00;100994.44;6121106;28;20104;-67
2023/10/18 04:44:18;;;;;;;18.77;7.63;;;;;;;1.19;100.00;101015.44;6120456;28;20082;-67
2023/10/18 04:47:14;;;;;;;18.27;6.43;;;;;;;1.24;100.00;101017.78;6120516;28;20119;-66
2023/10/18 04:50:11;;;;;;;17.60;7.32;;;;;;;1.25;100.00;101018.63;6120643;28;20411;-66
2023/10/18 04:53:23;;;;;;;18.52;6.85;;;;;;;1.54;100.00;101020.56;6120470;28;20025;-65
2023/10/18 04:56:18;;;;;;;19.63;6.70;;;;;;;2.07;100.00;101026.34;6120933;28;20020;-68
2023/10/18 05:02:17;;;;;;;14.10;6.22;;;;;;;1.80;100.00;101023.47;6120176;28;20040;-67
2023/10/18 05:05:13;;;;;;;15.63;5.72;;;;;;;2.05;100.00;101033.44;6115185;28;20569;-68
2023/10/18 05:08:13;;;;;;;16.70;6.28;;;;;;;2.00;100.00;101001.47;6125009;28;20037;-67
2023/10/18 05:11:24;;;;;;;14.93;6.60;;;;;;;1.92;100.00;101027.19;6124222;28;20070;-67
2023/10/18 05:14:35;;;;;;;17.70;6.18;;;;;;;1.55;100.00;101022.25;6124879;28;20506;-67
2023/10/18 05:17:32;;;;;;;15.00;6.45;;;;;;;1.43;100.00;101015.91;6122100;28;20700;-67
2023/10/18 05:20:41;;;;;;;13.90;5.65;;;;;;;1.29;100.00;101014.94;6124658;28;20697;-68
2023/10/18 05:23:37;;;;;;;21.58;6.97;;;;;;;1.25;100.00;101022.06;6124046;28;20032;-67
2023/10/18 05:26:35;;;;;;;14.20;5.50;;;;;;;1.19;100.00;101019.81;6125685;28;20508;-67
2023/10/18 05:29:42;;;;;;;13.70;5.82;;;;;;;1.02;100.00;101033.72;6124329;28;20025;-66
2023/10/18 05:32:38;;;;;;;13.30;5.88;;;;;;;0.99;100.00;101030.41;6124269;28;20380;-68
2023/10/18 05:35:34;;;;;;;16.33;7.18;;;;;;;1.08;100.00;101017.75;6124607;28;20044;-67
2023/10/18 05:41:46;;;;;;;19.92;7.18;;;;;;;1.32;100.00;101017.38;6124243;28;20047;-67
2023/10/18 05:44:41;;;;;;;21.23;6.82;;;;;;;1.53;100.00;101009.25;6124850;28;20590;-67
2023/10/18 05:47:37;;;;;;;23.65;8.13;;;;;;;1.59;100.00;101000.25;6124246;28;20033;-68
2023/10/18 05:50:34;;;;;;;26.93;8.07;;;;;;;1.79;100.00;100998.22;6124339;28;20025;-68
2023/10/18 05:53:30;;;;;;;24.02;8.90;;;;;;;1.94;100.00;101009.63;6123909;28;20031;-67
2023/10/18 05:56:32;;;;;;;30.73;9.20;;;;;;;1.95;100.00;100997.41;6124322;28;20037;-67
2023/10/18 05:59:27;;;;;;;31.20;9.07;;;;;;;2.17;100.00;101003.16;6123888;28;20150;-66
2023/10/18 06:02:23;;;;;;;35.27;10.47;;;;;;;2.24;100.00;101000.09;6123631;28;20040;-67
2023/10/18 06:05:19;;;;;;;36.65;10.13;;;;;;;2.24;100.00;101007.94;6124351;28;20024;-67
2023/10/18 06:08:15;;;;;;;43.45;12.25;;;;;;;2.19;100.00;100991.66;6123245;28;20107;-67
2023/10/18 06:11:13;;;;;;;28.52;10.48;;;;;;;2.19;100.00;100986.44;6123545;28;20091;-67
2023/10/18 06:14:09;;;;;;;39.83;12.38;;;;;;;2.23;100.00;100997.53;6124042;28;20108;-67
2023/10/18 06:17:19;;;;;;;27.00;9.80;;;;;;;2.20;100.00;100995.94;6123198;28;20028;-67
2023/10/18 06:20:27;;;;;;;36.75;9.95;;;;;;;2.17;100.00;100990.91;6108650;28;20029;-69
2023/10/18 06:26:30;;;;;;;37.53;11.20;;;;;;;1.88;100.00;100978.59;6120191;28;20024;-68
2023/10/18 06:29:25;;;;;;;29.67;8.55;;;;;;;1.90;100.00;100987.22;6123283;28;20046;-68
2023/10/18 06:32:22;;;;;;;40.10;11.60;;;;;;;1.78;100.00;100983.50;6123290;28;20036;-67
2023/10/18 06:35:17;;;;;;;38.63;10.52;;;;;;;1.72;100.00;100969.91;6123467;28;20043;-68
2023/10/18 06:38:17;;;;;;;31.33;8.40;;;;;;;1.71;100.00;100960.41;6123548;28;20040;-69
2023/10/18 06:41:18;;;;;;;24.98;10.05;;;;;;;1.87;100.00;100970.84;6129231;28;20028;-68
2023/10/18 06:44:14;;;;;;;30.15;10.38;;;;;;;1.84;100.00;100971.88;6117243;28;20032;-68
2023/10/18 06:47:13;;;;;;;22.85;8.43;;;;;;;1.85;100.00;100963.06;6123169;28;20037;-67
2023/10/18 06:50:11;;;;;;;29.38;10.80;;;;;;;1.98;100.00;100963.25;6122514;28;20028;-68
2023/10/18 06:53:07;;;;;;;45.65;11.00;;;;;;;2.11;100.00;100964.25;6119562;28;20077;-68
2023/10/18 06:56:19;;;;;;;32.17;11.30;;;;;;;2.07;100.00;100966.19;6123178;28;20048;-67
2023/10/18 06:59:14;;;;;;;28.00;9.63;;;;;;;2.09;100.00;100955.66;6122861;28;20036;-67
2023/10/18 07:02:12;;;;;;;26.87;10.70;;;;;;;2.22;100.00;100954.88;6125664;28;20028;-68
2023/10/18 07:05:09;;;;;;;24.73;9.68;;;;;;;2.30;100.00;100976.22;6129876;28;20262;-67
2023/10/18 07:08:18;;;;;;;32.00;10.15;;;;;;;2.42;100.00;100969.41;6134035;28;20032;-68
2023/10/18 07:11:16;;;;;;;30.70;10.23;;;;;;;2.49;100.00;100959.44;6118023;28;20086;-67
2023/10/18 07:14:12;;;;;;;31.48;11.20;;;;;;;2.60;100.00;100962.28;6122806;28;20066;-67
2023/10/18 07:17:09;;;;;;;31.25;11.52;;;;;;;2.57;100.00;100963.31;6122172;28;20029;-68
2023/10/18 07:20:15;;;;;;;29.00;10.52;;;;;;;2.63;100.00;100955.09;6122178;28;20032;-68
2023/10/18 07:23:20;;;;;;;24.63;10.68;;;;;;;2.75;100.00;100950.91;6102382;28;20035;-66
2023/10/18 07:26:16;;;;;;;28.90;12.98;;;;;;;2.79;100.00;100936.72;6121903;28;20044;-66
2023/10/18 07:29:13;;;;;;;25.27;10.67;;;;;;;2.99;100.00;100933.72;6121574;28;20028;-68
2023/10/18 07:32:12;;;;;;;26.92;10.73;;;;;;;2.89;100.00;100927.38;6121615;28;20119;-68
2023/10/18 07:35:12;;;;;;;34.90;10.90;;;;;;;3.00;100.00;100912.69;6122186;28;20103;-67
2023/10/18 07:38:07;;;;;;;30.30;11.38;;;;;;;3.18;100.00;100921.19;6121645;28;20071;-67
2023/10/18 07:41:04;;;;;;;29.53;11.30;;;;;;;3.19;100.00;100899.31;6119036;28;20032;-68
2023/10/18 07:44:00;;;;;;;29.40;11.25;;;;;;;3.34;100.00;100914.06;6121785;28;20346;-66
2023/10/18 07:46:55;;;;;;;32.67;10.57;;;;;;;3.47;100.00;100914.16;6121746;28;20037;-67
2023/10/18 07:49:55;;;;;;;31.20;12.43;;;;;;;3.60;100.00;100910.69;6121677;28;20463;-66
2023/10/18 07:52:54;;;;;;;36.83;13.05;;;;;;;3.96;100.00;100894.38;6121592;28;20334;-66
2023/10/18 07:55:57;;;;;;;29.98;13.10;;;;;;;4.15;100.00;100907.13;6121843;28;20054;-67
2023/10/18 07:58:53;;;;;;;30.63;11.10;;;;;;;4.19;100.00;100905.97;6120558;28;20487;-67
2023/10/18 08:01:51;;;;;;;41.78;14.18;;;;;;;4.45;100.00;100901.63;6121443;28;20028;-68
2023/10/18 08:04:47;;;;;;;31.23;12.02;;;;;;;4.38;100.00;100882.81;6121425;28;20025;-67
2023/10/18 08:07:48;;;;;;;26.27;11.45;;;;;;;4.50;100.00;100894.28;6121063;28;20032;-67
2023/10/18 08:10:44;;;;;;;31.83;12.48;;;;;;;4.58;100.00;100890.19;6121113;28;20399;-68
2023/10/18 08:13:45;;;;;;;30.60;12.53;;;;;;;4.64;100.00;100884.53;6121247;28;20040;-66
2023/10/18 08:16:43;;;;;;;23.92;10.32;;;;;;;4.86;100.00;100880.44;6120651;28;20476;-67
2023/10/18 08:19:44;;;;;;;27.83;11.05;;;;;;;4.89;100.00;100877.59;6120833;28;20024;-68
2023/10/18 08:22:39;;;;;;;28.05;10.65;;;;;;;5.20;100.00;100872.72;6118582;28;20033;-66
2023/10/18 08:25:35;;;;;;;25.90;11.00;;;;;;;5.35;100.00;100871.63;6121316;28;20039;-68
2023/10/18 08:28:40;;;;;;;25.03;11.07;;;;;;;5.36;100.00;100862.81;6120781;28;20021;-67
2023/10/18 08:31:35;;;;;;;22.88;8.93;;;;;;;5.75;100.00;100872.25;6113666;28;20275;-67
2023/10/18 08:34:31;;;;;;;19.73;9.07;;;;;;;5.88;100.00;100870.44;6121048;28;20380;-66
2023/10/18 08:37:27;;;;;;;25.88;10.27;;;;;;;6.07;100.00;100848.00;6120429;28;20035;-67
2023/10/18 08:40:36;;;;;;;24.10;9.35;;;;;;;6.11;100.00;100865.28;6121912;28;20127;-66
2023/10/18 08:43:32;;;;;;;20.35;9.55;;;;;;;6.19;100.00;100853.22;6126121;28;20490;-67
2023/10/18 08:46:27;;;;;;;22.40;9.13;;;;;;;6.27;100.00;100844.75;6125989;28;20037;-66
2023/10/18 08:49:24;;;;;;;21.77;7.97;;;;;;;6.36;100.00;100858.03;6124796;28;20423;-67
2023/10/18 08:52:20;;;;;;;19.88;8.75;;;;;;;6.65;100.00;100850.59;6125565;28;20089;-67
2023/10/18 08:55:31;;;;;;;17.63;9.23;;;;;;;6.62;100.00;100839.44;6125602;28;20043;-67
2023/10/18 08:58:30;;;;;;;19.77;8.68;;;;;;;6.73;100.00;100844.72;6112420;28;20124;-67
2023/10/18 09:01:25;;;;;;;20.88;8.50;;;;;;;6.95;100.00;100848.22;6124977;28;20028;-66
2023/10/18 09:04:21;;;;;;;18.98;8.23;;;;;;;6.98;100.00;100840.06;6125465;28;20051;-67
2023/10/18 09:07:22;;;;;;;23.60;9.77;;;;;;;6.96;100.00;100834.06;6125239;28;20059;-66
2023/10/18 09:13:37;;;;;;;17.13;7.68;;;;;;;7.36;100.00;100846.75;6106756;28;20468;-66
2023/10/18 09:16:43;;;;;;;22.73;9.07;;;;;;;7.51;100.00;100824.41;6109796;28;20123;-66
2023/10/18 09:19:45;;;;;;;20.08;8.50;;;;;;;7.70;100.00;100828.06;6123128;28;20040;-66
2023/10/18 09:22:47;;;;;;;16.77;7.70;;;;;;;7.80;100.00;100813.16;6118158;28;20048;-67
2023/10/18 09:25:49;;;;;;;18.80;8.73;;;;;;;8.05;100.00;100819.03;6113311;28;20498;-66
2023/10/18 09:28:44;;;;;;;20.05;7.72;;;;;;;8.13;100.00;100822.72;6111637;28;20112;-66
2023/10/18 09:31:52;;;;;;;20.77;7.60;;;;;;;8.21;100.00;100824.72;6124610;28;20411;-65
2023/10/18 09:34:48;;;;;;;18.60;7.72;;;;;;;8.10;100.00;100785.19;6124697;28;20027;-65
2023/10/18 09:37:45;;;;;;;16.50;7.55;;;;;;;8.27;100.00;100792.53;6120190;28;20036;-67
2023/10/18 09:40:40;;;;;;;18.48;7.63;;;;;;;8.53;100.00;100795.63;6106373;28;20033;-67
2023/10/18 09:43:36;;;;;;;17.43;7.63;;;;;;;8.65;100.00;100802.50;6126520;28;20040;-67
2023/10/18 09:46:33;;;;;;;14.75;6.22;;;;;;;8.79;100.00;100799.50;6124277;28;20055;-66
2023/10/18 09:49:31;;;;;;;15.77;6.78;;;;;;;8.84;100.00;100781.44;6122722;28;20491;-66
2023/10/18 09:52:31;;;;;;;14.30;7.00;;;;;;;8.82;100.00;100776.28;6121989;28;20025;-67
2023/10/18 09:55:27;;;;;;;28.88;9.43;;;;;;;8.98;100.00;100773.13;6103764;28;20039;-66
2023/10/18 09:58:24;;;;;;;25.13;9.50;;;;;;;9.01;100.00;100783.47;6125625;28;20090;-68
2023/10/18 10:01:55;;;;;;;16.83;7.10;;;;;;;9.04;100.00;100772.63;6105356;28;20024;-66
2023/10/18 10:04:52;;;;;;;22.13;10.52;;;;;;;9.17;100.00;100773.19;6123344;28;20450;-66
2023/10/18 10:07:47;;;;;;;16.70;6.35;;;;;;;9.23;100.00;100782.41;6110997;28;20032;-68
2023/10/18 10:10:45;;;;;;;18.80;9.07;;;;;;;9.31;100.00;100774.63;6122047;28;20024;-66
2023/10/18 10:13:42;;;;;;;15.70;6.93;;;;;;;9.54;100.00;100773.38;6106652;28;20039;-67
2023/10/18 10:16:40;;;;;;;16.85;7.22;;;;;;;9.62;100.00;100757.66;6108766;28;20376;-66
2023/10/18 10:19:40;;;;;;;14.15;7.28;;;;;;;9.58;100.00;100766.84;6119527;28;20041;-66
2023/10/18 10:22:42;;;;;;;16.23;7.15;;;;;;;9.82;100.00;100759.34;6121620;28;20036;-67
2023/10/18 10:25:38;;;;;;;15.07;7.07;;;;;;;9.71;100.00;100748.03;6129886;28;20081;-67
2023/10/18 10:29:44;;;;;;;16.30;6.63;;;;;;;10.00;100.00;100738.28;6123087;28;20048;-66
2023/10/18 10:32:09;;;;;;;12.10;5.70;;;;;;;9.99;100.00;100741.91;6103033;28;20044;-68
2023/10/18 10:35:15;;;;;;;14.63;5.85;;;;;;;10.12;100.00;100745.94;6126036;28;20361;-67
2023/10/18 10:38:14;;;;;;;15.00;6.57;;;;;;;10.23;100.00;100750.25;6114640;28;20032;-68
2023/10/18 10:41:19;;;;;;;13.95;6.00;;;;;;;10.39;100.00;100742.53;6122557;28;20028;-67
2023/10/18 10:44:22;;;;;;;14.75;5.22;;;;;;;10.33;98.34;100729.03;6094795;28;20041;-67
2023/10/18 10:47:42;;;;;;;12.55;5.82;;;;;;;10.33;92.43;100732.50;6122226;28;20025;-68
2023/10/18 10:50:51;;;;;;;13.93;6.25;;;;;;;10.25;90.44;100729.72;6129587;28;20079;-66
2023/10/18 10:53:57;;;;;;;11.55;6.65;;;;;;;10.43;93.58;100728.03;6122298;28;20395;-66
2023/10/18 10:56:54;;;;;;;10.23;4.85;;;;;;;10.34;89.10;100712.97;6125974;28;20525;-67
2023/10/18 10:59:51;;;;;;;10.45;5.43;;;;;;;10.44;90.41;100713.78;6119245;28;20475;-68
2023/10/18 11:02:47;;;;;;;12.40;5.30;;;;;;;10.43;87.12;100713.94;6118755;28;20059;-69
2023/10/18 11:05:45;;;;;;;12.13;5.70;;;;;;;10.56;85.90;100712.63;6121430;28;20028;-68
2023/10/18 11:08:40;;;;;;;12.80;4.50;;;;;;;10.60;86.54;100698.06;6126606;28;20483;-68
2023/10/18 11:11:35;;;;;;;15.93;5.40;;;;;;;10.66;88.44;100684.25;6121620;28;20078;-69
2023/10/18 11:14:31;;;;;;;11.87;5.10;;;;;;;10.76;86.59;100695.63;6122919;28;20082;-66
2023/10/18 11:17:29;;;;;;;13.30;5.05;;;;;;;10.65;88.09;100685.19;6116303;28;20078;-67
2023/10/18 11:20:30;;;;;;;13.73;5.40;;;;;;;10.77;88.07;100673.44;6122988;28;20031;-67
2023/10/18 11:23:27;;;;;;;9.52;4.68;;;;;;;10.87;85.59;100678.66;6117840;28;20467;-67
2023/10/18 11:26:26;;;;;;;13.73;4.57;;;;;;;10.85;84.11;100679.78;6122035;28;20027;-67
2023/10/18 11:29:24;;;;;;;14.80;5.40;;;;;;;10.68;84.99;100663.69;6121196;28;20038;-67
2023/10/18 11:32:19;;;;;;;7.70;3.95;;;;;;;10.90;85.53;100659.00;6120304;28;20120;-68
2023/10/18 11:35:25;;;;;;;10.68;4.43;;;;;;;10.83;82.35;100644.63;6126008;28;20032;-67
2023/10/18 11:38:21;;;;;;;9.60;4.03;;;;;;;10.69;81.53;100622.94;6113866;28;20123;-67
2023/10/18 11:41:21;;;;;;;13.60;4.40;;;;;;;10.74;84.64;100625.97;6109120;28;20395;-67
2023/10/18 11:44:27;;;;;;;7.38;3.65;;;;;;;10.93;81.19;100629.47;6118265;28;20028;-67
2023/10/18 11:47:23;;;;;;;9.32;4.10;;;;;;;10.93;82.21;100609.09;6116071;28;20036;-67
2023/10/18 11:50:23;;;;;;;11.23;4.88;;;;;;;11.09;80.98;100608.41;6123273;28;20039;-68
2023/10/18 11:53:24;;;;;;;17.60;7.20;;;;;;;11.02;81.37;100607.34;6099705;28;20028;-67
2023/10/18 11:56:19;;;;;;;11.75;6.10;;;;;;;10.95;80.71;100580.59;6118726;28;20032;-67
2023/10/18 11:59:15;;;;;;;9.00;4.53;;;;;;;10.99;80.82;100568.69;6128180;28;20056;-68
2023/10/18 12:02:13;;;;;;;20.57;7.20;;;;;;;11.17;80.43;100579.31;6121214;28;20259;-68
2023/10/18 12:05:10;;;;;;;10.80;5.22;;;;;;;11.10;80.70;100562.31;6119476;28;20126;-68
2023/10/18 12:08:05;;;;;;;9.43;4.65;;;;;;;11.08;80.51;100553.69;6120830;28;20039;-67
2023/10/18 12:11:04;;;;;;;11.40;5.50;;;;;;;11.12;80.99;100555.03;6125023;28;20028;-68
2023/10/18 12:14:00;;;;;;;13.68;5.97;;;;;;;11.12;80.42;100544.41;6123165;28;20052;-68
2023/10/18 12:16:56;;;;;;;9.73;5.03;;;;;;;11.14;78.79;100532.66;6119957;28;20035;-67
2023/10/18 12:19:51;;;;;;;8.67;4.90;;;;;;;11.11;78.46;100543.59;6126626;28;20388;-69
2023/10/18 12:22:48;;;;;;;11.30;5.85;;;;;;;10.80;80.00;100522.91;6117929;28;20270;-67
2023/10/18 12:25:44;;;;;;;9.35;4.88;;;;;;;10.85;82.33;100515.34;6120388;28;20040;-67
2023/10/18 12:28:41;;;;;;;8.68;4.38;;;;;;;10.88;78.09;100515.03;6120627;28;20033;-67
2023/10/18 12:31:39;;;;;;;10.07;4.38;;;;;;;10.88;77.94;100530.94;6120109;28;20044;-67
2023/10/18 12:34:35;;;;;;;8.57;3.90;;;;;;;10.79;77.42;100516.78;6122031;28;20050;-67
2023/10/18 12:37:32;;;;;;;8.03;4.17;;;;;;;10.75;75.89;100495.06;6117100;28;20021;-67
2023/10/18 12:40:28;;;;;;;8.80;3.75;;;;;;;10.92;76.35;100511.09;6129155;28;20023;-68
2023/10/18 12:43:24;;;;;;;9.43;4.20;;;;;;;10.96;75.45;100507.97;6117474;28;20036;-68
2023/10/18 12:46:22;;;;;;;8.38;3.30;;;;;;;11.07;74.23;100498.94;6121990;28;20032;-67
2023/10/18 12:49:22;;;;;;;6.90;4.00;;;;;;;11.00;76.04;100493.44;6118887;28;20028;-69
2023/10/18 12:52:41;;;;;;;9.07;4.03;;;;;;;10.91;74.00;100509.41;6123294;28;20032;-69
2023/10/18 12:55:36;;;;;;;9.13;4.15;;;;;;;10.86;73.91;100511.72;6115258;28;20032;-67
2023/10/18 12:58:32;;;;;;;9.82;3.92;;;;;;;10.67;73.19;100497.63;6132133;28;20576;-69
2023/10/18 13:01:37;;;;;;;6.90;3.13;;;;;;;10.70;74.40;100510.59;6119632;28;20112;-66
2023/10/18 13:04:38;;;;;;;6.45;3.72;;;;;;;10.66;72.57;100503.91;6111551;28;20467;-66
2023/10/18 13:07:37;;;;;;;7.82;3.85;;;;;;;10.60;72.76;100490.41;6119784;28;20024;-67
2023/10/18 13:10:32;;;;;;;7.18;3.78;;;;;;;10.71;73.28;100488.38;6114198;28;20041;-67
2023/10/18 13:13:30;;;;;;;8.17;3.60;;;;;;;10.63;73.87;100474.19;6122670;28;20486;-68
2023/10/18 13:16:25;;;;;;;6.03;3.47;;;;;;;10.71;72.49;100483.06;6125329;28;20419;-68
2023/10/18 13:19:20;;;;;;;10.70;3.63;;;;;;;10.61;73.42;100471.72;6128176;28;20032;-68
2023/10/18 13:22:17;;;;;;;6.85;3.47;;;;;;;10.69;72.75;100469.13;6124555;28;20078;-68
2023/10/18 13:25:25;;;;;;;8.43;3.55;;;;;;;10.66;73.08;100458.81;6128104;28;20047;-68
2023/10/18 13:28:59;;;;;;;7.25;3.42;;;;;;;10.72;74.07;100468.00;6127710;28;20032;-68
2023/10/18 13:31:44;;;;;;;8.80;3.92;;;;;;;10.75;73.62;100468.53;6117157;28;20044;-67
2023/10/18 13:34:42;;;;;;;10.20;3.60;;;;;;;10.80;74.06;100469.88;6130664;28;20043;-68
2023/10/18 13:37:37;;;;;;;9.85;4.72;;;;;;;10.65;74.68;100456.34;6115396;28;20028;-68
2023/10/18 13:40:36;;;;;;;10.07;5.03;;;;;;;10.70;73.94;100444.28;6134185;28;20588;-68
2023/10/18 13:43:32;;;;;;;8.88;3.33;;;;;;;10.66;72.66;100431.47;6118910;28;20379;-68
2023/10/18 13:46:27;;;;;;;12.73;6.47;;;;;;;10.65;73.12;100427.16;6126328;28;20036;-67
2023/10/18 13:49:26;;;;;;;9.63;4.53;;;;;;;10.58;74.31;100421.63;6129511;28;20035;-68
2023/10/18 13:52:21;;;;;;;6.85;3.53;;;;;;;10.65;75.84;100414.72;6123888;28;20384;-68
2023/10/18 13:55:18;;;;;;;7.77;3.80;;;;;;;10.56;76.00;100410.34;6124237;28;20060;-68
2023/10/18 13:58:13;;;;;;;7.10;3.95;;;;;;;10.59;78.54;100412.69;6131180;28;20028;-68
2023/10/18 14:01:18;;;;;;;8.67;4.53;;;;;;;10.54;79.57;100388.47;6118283;28;20399;-69